Time;durP1;ratioP1;P1;durP2;ratioP2;P2;SDS_P1;SDS_P2;PMS_P1;PMS_P2;Temp;Humidity;BMP_temperature;BMP_pressure;BME280_temperature;BME280_humidity;BME280_pressure;Samples;Min_cycle;Max_cycle;Signal;HPM_P1;HPM_P2
2022/04/05 00:02:07;;;;;;;6.22;3.45;;;;;;;6.37;77.07;98041.81;5055323;28;20056;-69
2022/04/05 00:04:33;;;;;;;8.57;4.15;;;;;;;6.34;77.70;98035.78;5044014;28;20217;-69
2022/04/05 00:06:58;;;;;;;5.07;3.47;;;;;;;6.34;77.74;98038.41;5053454;28;20016;-69
2022/04/05 00:09:24;;;;;;;6.50;3.78;;;;;;;6.29;78.04;98041.06;5046378;28;20017;-69
2022/04/05 00:11:49;;;;;;;5.68;3.60;;;;;;;6.28;79.09;98030.63;5043911;28;20270;-69
2022/04/05 00:14:15;;;;;;;4.40;3.35;;;;;;;6.34;80.00;98043.63;5045040;28;20316;-69
2022/04/05 00:16:40;;;;;;;4.85;3.15;;;;;;;6.22;80.82;98034.19;5043911;28;20313;-69
2022/04/05 00:19:06;;;;;;;7.93;3.50;;;;;;;6.28;81.64;98035.84;5043866;28;20067;-69
2022/04/05 00:21:31;;;;;;;6.25;3.78;;;;;;;6.10;83.36;98036.06;5062816;28;20216;-69
2022/04/05 00:23:57;;;;;;;11.43;3.80;;;;;;;6.07;84.80;98033.47;5063198;28;20029;-69
2022/04/05 00:26:22;;;;;;;6.43;3.53;;;;;;;6.10;85.27;98030.84;5055622;28;20025;-69
2022/04/05 00:28:48;;;;;;;7.00;4.05;;;;;;;5.92;86.00;98026.69;5063369;28;20009;-69
2022/04/05 00:31:14;;;;;;;6.13;3.22;;;;;;;5.99;87.13;98024.88;5063903;28;20021;-69
2022/04/05 00:33:40;;;;;;;6.25;3.47;;;;;;;5.92;86.72;98020.63;5045174;28;20033;-69
2022/04/05 00:36:05;;;;;;;9.55;4.20;;;;;;;5.93;87.65;98022.34;5043768;28;20028;-69
2022/04/05 00:38:31;;;;;;;5.57;3.28;;;;;;;5.90;87.79;98015.41;5043599;28;20017;-69
2022/04/05 00:40:56;;;;;;;10.35;3.83;;;;;;;5.85;88.80;98013.69;5044540;28;20017;-69
2022/04/05 00:43:22;;;;;;;5.65;3.38;;;;;;;5.82;89.23;98009.38;5063078;28;20083;-69
2022/04/05 00:45:47;;;;;;;6.55;3.72;;;;;;;5.78;89.64;98007.66;5056412;28;20021;-69
2022/04/05 00:48:44;;;;;;;9.10;4.13;;;;;;;5.79;90.19;98009.38;5046884;28;20040;-69
2022/04/05 00:51:10;;;;;;;5.55;3.08;;;;;;;5.80;90.38;98012.88;5047299;28;20041;-69
2022/04/05 00:53:36;;;;;;;8.48;4.10;;;;;;;5.74;90.55;98011.19;5047458;28;20299;-69
2022/04/05 00:56:05;;;;;;;5.82;3.03;;;;;;;5.76;91.12;98000.75;5047448;28;20088;-69
2022/04/05 00:58:32;;;;;;;6.63;3.85;;;;;;;5.83;91.43;98005.03;5055424;28;20086;-69
2022/04/05 01:00:58;;;;;;;6.40;3.50;;;;;;;5.86;90.79;98000.63;5047311;28;20021;-69
2022/04/05 01:03:25;;;;;;;8.60;3.42;;;;;;;5.79;91.40;97990.25;5047542;28;20316;-69
2022/04/05 01:05:52;;;;;;;5.03;2.90;;;;;;;5.70;91.34;97983.38;5055104;28;20358;-69
2022/04/05 01:08:19;;;;;;;14.50;3.40;;;;;;;5.75;92.06;97986.81;5066417;28;20021;-69
2022/04/05 01:10:46;;;;;;;9.50;3.10;;;;;;;5.71;92.50;97994.69;5052391;28;20025;-69
2022/04/05 01:13:11;;;;;;;10.13;3.55;;;;;;;5.65;93.44;97990.41;5063469;28;20092;-69
2022/04/05 01:15:37;;;;;;;8.43;2.90;;;;;;;5.78;92.95;97985.91;5047092;28;20025;-69
2022/04/05 01:18:03;;;;;;;4.07;2.63;;;;;;;5.75;93.07;97985.94;5046895;28;20084;-69
2022/04/05 01:20:28;;;;;;;5.28;3.25;;;;;;;5.69;92.85;97986.00;5046952;28;20071;-69
2022/04/05 01:22:54;;;;;;;13.73;3.95;;;;;;;5.76;93.18;97982.47;5063805;28;20025;-69
2022/04/05 01:25:20;;;;;;;6.93;3.60;;;;;;;5.74;93.03;97981.59;5064971;28;20374;-69
2022/04/05 01:27:46;;;;;;;7.20;3.45;;;;;;;5.80;92.83;97989.38;5066220;28;20076;-69
2022/04/05 01:30:12;;;;;;;5.88;3.40;;;;;;;5.80;93.13;97987.63;5065943;28;20092;-69
2022/04/05 01:32:38;;;;;;;5.25;3.40;;;;;;;5.66;93.67;97986.06;5064670;28;20294;-69
2022/04/05 01:35:06;;;;;;;4.45;3.33;;;;;;;5.71;93.92;97986.84;5066322;28;20193;-69
2022/04/05 01:37:32;;;;;;;9.02;3.92;;;;;;;5.72;94.58;97980.75;5065738;28;20033;-69
2022/04/05 01:39:58;;;;;;;7.20;3.33;;;;;;;5.65;94.46;97973.84;5065962;28;20025;-69
2022/04/05 01:42:24;;;;;;;5.68;3.53;;;;;;;5.70;95.29;97977.31;5065654;28;20028;-69
2022/04/05 01:44:49;;;;;;;10.20;4.20;;;;;;;5.64;95.19;97977.38;5055570;28;20025;-69
2022/04/05 01:47:17;;;;;;;9.25;3.40;;;;;;;5.60;96.04;97970.44;5046481;28;20058;-69
2022/04/05 01:49:48;;;;;;;6.55;3.20;;;;;;;5.62;96.17;97971.28;5046706;28;20025;-69
2022/04/05 01:52:14;;;;;;;5.47;3.55;;;;;;;5.58;96.40;97966.97;5046703;28;20260;-69
2022/04/05 01:54:39;;;;;;;10.13;3.55;;;;;;;5.47;96.24;97967.09;5049076;28;20055;-69
2022/04/05 01:57:05;;;;;;;6.57;3.05;;;;;;;5.54;96.49;97966.13;5064335;28;20025;-69
2022/04/05 01:59:33;;;;;;;6.35;3.70;;;;;;;5.56;96.38;97969.59;5064306;28;20309;-69
2022/04/05 02:01:59;;;;;;;4.38;3.13;;;;;;;5.51;96.88;97970.53;5065571;28;20016;-69
2022/04/05 02:04:24;;;;;;;7.00;3.45;;;;;;;5.48;97.28;97971.44;5064195;28;20017;-69
2022/04/05 02:06:50;;;;;;;5.50;3.85;;;;;;;5.48;97.24;97971.44;5065261;28;20016;-69
2022/04/05 02:09:16;;;;;;;8.57;4.47;;;;;;;5.52;98.45;97973.13;5052294;28;20080;-69
2022/04/05 02:11:44;;;;;;;5.78;3.85;;;;;;;5.51;98.36;97970.53;5045975;28;20028;-69
2022/04/05 02:14:13;;;;;;;8.55;4.18;;;;;;;5.53;98.21;97981.81;5046297;28;20092;-69
2022/04/05 02:16:39;;;;;;;9.23;3.72;;;;;;;5.40;98.59;97982.81;5047111;28;20020;-69
2022/04/05 02:19:05;;;;;;;6.03;3.47;;;;;;;5.42;99.09;97975.84;5045771;28;20052;-69
2022/04/05 02:21:31;;;;;;;11.48;4.68;;;;;;;5.41;99.41;97979.34;5062372;28;20017;-69
2022/04/05 02:23:56;;;;;;;5.43;3.80;;;;;;;5.33;99.54;97979.41;5063587;28;20067;-69
2022/04/05 02:26:22;;;;;;;8.30;4.20;;;;;;;5.40;99.67;97982.81;5061096;28;20032;-69
2022/04/05 02:28:48;;;;;;;7.32;3.88;;;;;;;5.38;99.67;97981.97;5045664;28;20096;-69
2022/04/05 02:31:16;;;;;;;4.82;3.30;;;;;;;5.29;100.00;97969.00;5045909;28;20022;-69
2022/04/05 02:33:41;;;;;;;6.43;4.10;;;;;;;5.41;99.87;97976.72;5045461;28;20368;-69
2022/04/05 02:36:08;;;;;;;5.97;3.83;;;;;;;5.30;99.82;97975.94;5061668;28;20084;-69
2022/04/05 02:38:34;;;;;;;6.10;3.92;;;;;;;5.37;100.00;97977.63;5064838;28;20021;-69
2022/04/05 02:41:01;;;;;;;7.53;4.45;;;;;;;5.37;99.82;97973.28;5064605;28;20025;-69
2022/04/05 02:43:27;;;;;;;7.85;4.13;;;;;;;5.37;100.00;97977.63;5051643;28;20013;-69
2022/04/05 02:45:55;;;;;;;10.07;4.88;;;;;;;5.38;99.90;97981.97;5045432;28;20041;-69
2022/04/05 02:48:22;;;;;;;9.80;4.82;;;;;;;5.31;100.00;97988.13;5045293;28;20021;-69
2022/04/05 02:50:47;;;;;;;13.52;5.55;;;;;;;5.31;99.97;97986.38;5045445;28;20047;-69
2022/04/05 02:53:12;;;;;;;9.50;4.88;;;;;;;5.28;100.00;97977.72;5045219;28;20021;-69
2022/04/05 02:55:38;;;;;;;10.40;4.90;;;;;;;5.33;100.00;97986.34;5045209;28;20325;-69
2022/04/05 02:58:03;;;;;;;7.72;4.35;;;;;;;5.25;100.00;97972.53;5049205;28;20024;-69
2022/04/05 03:00:29;;;;;;;8.30;4.70;;;;;;;5.25;100.00;97972.53;5064459;28;20020;-69
2022/04/05 03:02:55;;;;;;;7.45;4.18;;;;;;;5.27;100.00;97970.75;5053947;28;20316;-69
2022/04/05 03:05:22;;;;;;;7.65;4.75;;;;;;;5.22;100.00;97972.56;5044984;28;20247;-69
2022/04/05 03:07:47;;;;;;;8.38;4.47;;;;;;;5.18;100.00;97961.28;5045226;28;20019;-69
2022/04/05 03:10:13;;;;;;;8.30;5.45;;;;;;;5.12;100.00;97963.09;5047620;28;20265;-69
2022/04/05 03:12:39;;;;;;;13.35;5.90;;;;;;;5.16;100.00;97964.78;5064264;28;20100;-69
2022/04/05 03:15:07;;;;;;;8.25;4.43;;;;;;;5.13;100.00;97967.41;5063935;28;20021;-69
2022/04/05 03:17:34;;;;;;;11.90;6.38;;;;;;;5.16;100.00;97963.03;5064050;28;20216;-69
2022/04/05 03:20:03;;;;;;;10.75;5.85;;;;;;;5.16;100.00;97964.78;5064127;28;20051;-69
2022/04/05 03:22:29;;;;;;;11.68;6.22;;;;;;;5.10;100.00;97962.22;5062642;28;20017;-69
2022/04/05 03:24:55;;;;;;;10.63;5.97;;;;;;;5.10;100.00;97962.22;5064044;28;20016;-69
2022/04/05 03:27:20;;;;;;;11.45;6.18;;;;;;;5.16;100.00;97962.19;5047063;28;20313;-69
2022/04/05 03:29:46;;;;;;;15.18;6.03;;;;;;;5.15;100.00;97963.91;5056315;28;20182;-69
2022/04/05 03:32:11;;;;;;;11.07;6.40;;;;;;;5.11;100.00;97953.50;5063834;28;20064;-69
2022/04/05 03:34:38;;;;;;;15.70;6.82;;;;;;;5.06;100.00;97952.72;5053974;28;20048;-69
2022/04/05 03:37:03;;;;;;;11.80;6.32;;;;;;;4.98;100.00;97951.91;5044408;28;20058;-69
2022/04/05 03:39:29;;;;;;;15.95;5.82;;;;;;;5.01;100.00;97946.66;5044262;28;20041;-69
2022/04/05 03:41:54;;;;;;;10.48;6.20;;;;;;;5.06;100.00;97952.72;5054975;28;20067;-69
2022/04/05 03:44:20;;;;;;;10.88;5.45;;;;;;;4.97;100.00;97955.38;5054568;28;20090;-69
2022/04/05 03:46:45;;;;;;;14.57;6.63;;;;;;;4.96;100.00;97949.31;5050327;28;20333;-69
2022/04/05 03:49:11;;;;;;;11.90;6.72;;;;;;;4.96;100.00;97949.31;5044267;28;20075;-69
2022/04/05 03:51:36;;;;;;;12.50;6.97;;;;;;;5.06;100.00;97950.94;5045311;28;20368;-69
2022/04/05 03:54:02;;;;;;;10.50;6.43;;;;;;;4.99;100.00;97948.41;5043056;28;20026;-69
2022/04/05 03:56:28;;;;;;;13.25;6.50;;;;;;;5.02;100.00;97950.97;5060320;28;20017;-69
2022/04/05 03:58:53;;;;;;;14.38;7.75;;;;;;;5.00;100.00;97944.94;5050325;28;20084;-69
2022/04/05 04:01:18;;;;;;;15.32;7.07;;;;;;;4.99;100.00;97951.88;5044277;28;20053;-69
2022/04/05 04:03:44;;;;;;;12.07;6.97;;;;;;;5.00;100.00;97951.00;5043175;28;20021;-69
2022/04/05 04:06:09;;;;;;;16.08;6.43;;;;;;;4.96;100.00;97948.44;5045525;28;20017;-69
2022/04/05 04:08:35;;;;;;;10.55;5.88;;;;;;;5.05;100.00;97943.13;5061754;28;20240;-69
2022/04/05 04:11:01;;;;;;;11.50;6.30;;;;;;;4.96;100.00;97953.63;5056746;28;20036;-69
2022/04/05 04:13:26;;;;;;;12.68;6.63;;;;;;;4.95;100.00;97952.78;5063764;28;20025;-69
2022/04/05 04:15:52;;;;;;;11.30;7.30;;;;;;;4.96;100.00;97948.44;5063797;28;20055;-69
2022/04/05 04:18:17;;;;;;;11.77;6.90;;;;;;;4.95;100.00;97951.91;5063727;28;20209;-69
2022/04/05 04:20:43;;;;;;;16.65;7.75;;;;;;;4.83;100.00;97954.63;5063760;28;20044;-69
2022/04/05 04:23:10;;;;;;;13.82;7.70;;;;;;;4.78;100.00;97959.03;5067415;28;20016;-69
2022/04/05 04:25:39;;;;;;;11.43;7.72;;;;;;;4.82;100.00;97947.69;5067907;28;20025;-69
2022/04/05 04:28:05;;;;;;;14.10;8.55;;;;;;;4.80;100.00;97941.59;5067839;28;20020;-69
2022/04/05 04:30:36;;;;;;;14.00;7.70;;;;;;;4.79;100.00;97945.09;5067783;28;20096;-69
2022/04/05 04:33:02;;;;;;;16.80;8.48;;;;;;;4.81;100.00;97943.34;5067587;28;20033;-69
2022/04/05 04:35:28;;;;;;;13.68;8.05;;;;;;;4.82;100.00;97938.13;5067635;28;20216;-69
2022/04/05 04:37:54;;;;;;;15.38;8.13;;;;;;;4.87;100.00;97938.09;5067835;28;20213;-69
2022/04/05 04:40:20;;;;;;;22.65;8.88;;;;;;;4.74;100.00;97942.53;5067605;28;20220;-69
2022/04/05 04:42:45;;;;;;;14.15;7.57;;;;;;;4.67;100.00;97929.53;5067558;28;20044;-69
2022/04/05 04:45:11;;;;;;;13.40;7.97;;;;;;;4.77;100.00;97942.50;5067533;28;20062;-69
2022/04/05 04:47:37;;;;;;;13.27;7.00;;;;;;;4.80;100.00;97944.22;5067532;28;20070;-69
2022/04/05 04:50:04;;;;;;;13.68;7.53;;;;;;;4.78;100.00;97945.97;5067465;28;20016;-69
2022/04/05 04:52:30;;;;;;;11.35;6.93;;;;;;;4.74;100.00;97946.91;5067403;28;20066;-69
2022/04/05 04:54:55;;;;;;;14.98;7.32;;;;;;;4.77;100.00;97942.50;5067365;28;20212;-69
2022/04/05 04:57:23;;;;;;;14.15;7.85;;;;;;;4.69;100.00;97938.22;5067210;28;20028;-69
2022/04/05 04:59:49;;;;;;;16.27;8.10;;;;;;;4.70;100.00;97934.72;5067262;28;20029;-69
2022/04/05 05:02:14;;;;;;;15.73;7.78;;;;;;;4.66;100.00;97943.47;5067211;28;20123;-69
2022/04/05 05:04:40;;;;;;;12.57;6.53;;;;;;;4.82;100.00;97935.53;5067231;28;20372;-69
2022/04/05 05:07:06;;;;;;;13.77;7.68;;;;;;;4.65;100.00;97946.94;5067139;28;20025;-69
2022/04/05 05:09:31;;;;;;;13.75;6.72;;;;;;;4.74;100.00;97932.09;5067368;28;20039;-69
2022/04/05 05:11:57;;;;;;;15.10;8.35;;;;;;;4.82;100.00;97940.75;5067256;28;20189;-69
2022/04/05 05:14:22;;;;;;;12.77;7.00;;;;;;;4.72;100.00;97943.41;5066992;28;20205;-69
2022/04/05 05:16:48;;;;;;;14.50;7.38;;;;;;;4.77;100.00;97946.88;5067186;28;20387;-69
2022/04/05 05:19:13;;;;;;;9.48;6.57;;;;;;;4.81;100.00;97956.38;5066903;28;20071;-69
2022/04/05 05:21:38;;;;;;;10.90;6.53;;;;;;;4.87;100.00;97954.59;5066883;28;20032;-69
2022/04/05 05:24:04;;;;;;;14.40;6.65;;;;;;;4.93;100.00;97953.69;5066791;28;20025;-69
2022/04/05 05:26:30;;;;;;;11.30;6.75;;;;;;;4.89;100.00;97951.97;5066813;28;20209;-69
2022/04/05 05:28:55;;;;;;;11.32;6.25;;;;;;;4.94;100.00;97955.41;5066716;28;20029;-69
2022/04/05 05:31:21;;;;;;;11.90;6.05;;;;;;;4.92;100.00;97951.94;5066678;28;20025;-69
2022/04/05 05:33:46;;;;;;;14.48;7.00;;;;;;;4.90;100.00;97954.56;5066192;28;20311;-69
2022/04/05 05:36:12;;;;;;;16.85;7.47;;;;;;;4.85;100.00;97955.47;5066661;28;20021;-69
2022/04/05 05:38:37;;;;;;;13.40;7.35;;;;;;;4.90;100.00;97962.38;5066470;28;20024;-69
2022/04/05 05:41:04;;;;;;;13.25;6.40;;;;;;;4.92;100.00;97957.16;5066498;28;20024;-69
2022/04/05 05:43:29;;;;;;;16.60;6.88;;;;;;;5.05;100.00;97964.88;5066414;28;20032;-69
2022/04/05 05:45:55;;;;;;;13.27;5.60;;;;;;;4.97;100.00;97951.03;5066654;28;20025;-69
2022/04/05 05:48:20;;;;;;;11.90;7.78;;;;;;;4.93;100.00;97958.91;5066389;28;20209;-69
2022/04/05 05:50:46;;;;;;;11.98;6.47;;;;;;;4.95;100.00;97973.66;5066364;28;20215;-69
2022/04/05 05:53:12;;;;;;;15.75;7.57;;;;;;;5.00;100.00;97960.59;5066538;28;20351;-69
2022/04/05 05:55:37;;;;;;;12.65;6.22;;;;;;;4.94;100.00;97976.28;5066360;28;20021;-69
2022/04/05 05:58:04;;;;;;;13.70;6.75;;;;;;;4.91;100.00;97966.75;5066111;28;20036;-69
2022/04/05 06:00:30;;;;;;;17.60;6.32;;;;;;;4.97;100.00;97960.59;5066114;28;20017;-69
2022/04/05 06:02:58;;;;;;;15.30;7.47;;;;;;;4.97;100.00;97971.03;5066111;28;20217;-69
2022/04/05 06:05:27;;;;;;;14.48;7.22;;;;;;;4.98;100.00;97967.53;5066318;28;20021;-69
2022/04/05 06:07:53;;;;;;;17.48;6.82;;;;;;;4.93;100.00;97970.19;5065989;28;20092;-69
2022/04/05 06:10:20;;;;;;;14.38;6.13;;;;;;;5.00;100.00;97965.78;5065915;28;20021;-69
2022/04/05 06:12:48;;;;;;;12.85;6.68;;;;;;;5.10;100.00;97978.75;5066158;28;20025;-69
2022/04/05 06:15:15;;;;;;;16.67;6.57;;;;;;;5.03;100.00;97966.63;5065904;28;20016;-69
2022/04/05 06:17:43;;;;;;;12.57;7.53;;;;;;;4.99;100.00;97964.03;5065752;28;20048;-69
2022/04/05 06:20:10;;;;;;;17.90;8.15;;;;;;;4.98;100.00;97967.53;5065742;28;20025;-69
2022/04/05 06:22:43;;;;;;;15.48;7.25;;;;;;;4.96;100.00;97969.28;5065750;28;20032;-69
2022/04/05 06:25:10;;;;;;;13.63;6.75;;;;;;;5.05;100.00;97977.03;5065724;28;20021;-69
2022/04/05 06:27:37;;;;;;;15.40;7.60;;;;;;;5.05;100.00;97969.22;5065614;28;20351;-69
2022/04/05 06:30:04;;;;;;;9.43;5.80;;;;;;;5.04;100.00;97967.50;5065563;28;20198;-69
2022/04/05 06:32:29;;;;;;;15.80;8.02;;;;;;;4.98;100.00;97977.97;5065386;28;20292;-69
2022/04/05 06:34:55;;;;;;;17.20;7.00;;;;;;;5.01;100.00;97983.16;5065482;28;20020;-69
2022/04/05 06:37:20;;;;;;;14.38;7.97;;;;;;;5.03;100.00;97986.63;5065461;28;20036;-69
2022/04/05 06:39:46;;;;;;;16.65;7.65;;;;;;;5.09;100.00;97991.81;5065328;28;20021;-69
2022/04/05 06:42:11;;;;;;;12.27;7.97;;;;;;;5.12;100.00;97991.78;5065371;28;20348;-69
2022/04/05 06:44:37;;;;;;;16.23;8.00;;;;;;;5.06;100.00;97991.84;5064592;28;20017;-69
2022/04/05 06:47:02;;;;;;;14.05;6.85;;;;;;;5.12;100.00;97997.00;5065280;28;20016;-69
2022/04/05 06:49:28;;;;;;;13.13;6.45;;;;;;;5.21;100.00;97991.69;5065243;28;20076;-69
2022/04/05 06:51:53;;;;;;;10.52;6.10;;;;;;;5.24;100.00;97991.66;5065169;28;20025;-69
2022/04/05 06:54:19;;;;;;;10.88;6.70;;;;;;;5.17;100.00;97996.06;5065126;28;20087;-69
2022/04/05 06:56:44;;;;;;;14.40;6.47;;;;;;;5.29;100.00;97989.88;5065085;28;20021;-69
2022/04/05 06:59:09;;;;;;;14.85;6.88;;;;;;;5.33;100.00;97986.34;5065016;28;20021;-69
2022/04/05 07:01:35;;;;;;;15.18;7.60;;;;;;;5.42;100.00;97986.28;5064966;28;20095;-69
2022/04/05 07:04:01;;;;;;;11.75;6.20;;;;;;;5.46;100.00;97977.53;5064933;28;20128;-69
2022/04/05 07:06:26;;;;;;;13.55;6.93;;;;;;;5.59;100.00;97986.97;5064846;28;20024;-69
2022/04/05 07:08:51;;;;;;;14.48;6.13;;;;;;;5.57;100.00;97992.22;5064821;28;20048;-69
2022/04/05 07:11:17;;;;;;;10.50;6.28;;;;;;;5.57;100.00;97986.16;5064710;28;20316;-69
2022/04/05 07:13:43;;;;;;;11.27;6.55;;;;;;;5.67;100.00;97993.00;5064775;28;20021;-69
2022/04/05 07:16:08;;;;;;;14.20;6.78;;;;;;;5.76;100.00;97993.75;5064713;28;20084;-69
2022/04/05 07:18:33;;;;;;;11.32;6.55;;;;;;;5.71;100.00;97994.69;5064563;28;20017;-69
2022/04/05 07:21:01;;;;;;;9.52;6.05;;;;;;;5.70;100.00;97988.59;5064582;28;20084;-69
2022/04/05 07:23:26;;;;;;;12.45;6.85;;;;;;;5.67;100.00;97987.78;5064477;28;20042;-69
2022/04/05 07:25:51;;;;;;;11.48;5.70;;;;;;;5.64;100.00;97977.38;5064508;28;20025;-69
2022/04/05 07:28:17;;;;;;;12.40;6.57;;;;;;;5.67;100.00;97982.56;5064463;28;20017;-69
2022/04/05 07:30:42;;;;;;;16.42;6.70;;;;;;;5.65;100.00;97984.31;5064452;28;20016;-69
2022/04/05 07:33:09;;;;;;;17.27;6.47;;;;;;;5.74;100.00;97979.00;5064285;28;20044;-69
2022/04/05 07:35:34;;;;;;;17.15;7.78;;;;;;;5.75;100.00;97980.72;5064584;28;20025;-69
2022/04/05 07:38:00;;;;;;;14.00;6.70;;;;;;;5.77;100.00;97984.19;5064264;28;20321;-69
2022/04/05 07:40:47;;;;;;;15.20;6.85;;;;;;;5.74;100.00;97979.00;5064282;28;20048;-69
2022/04/05 07:43:11;;;;;;;12.52;6.47;;;;;;;5.78;100.00;97991.13;5064163;28;20040;-69
2022/04/05 07:45:36;;;;;;;14.70;6.30;;;;;;;5.89;100.00;97989.31;5064266;28;20025;-69
2022/04/05 07:48:01;;;;;;;15.48;6.55;;;;;;;5.82;100.00;97985.03;5064158;28;20047;-69
2022/04/05 07:50:27;;;;;;;15.10;6.97;;;;;;;5.91;100.00;97992.75;5064346;28;20296;-69
2022/04/05 07:52:53;;;;;;;12.48;6.25;;;;;;;5.92;100.00;97989.28;5062938;28;20080;-69
2022/04/05 07:55:18;;;;;;;17.02;7.78;;;;;;;5.94;100.00;97998.81;5064260;28;20028;-69
2022/04/05 07:57:46;;;;;;;12.75;6.45;;;;;;;6.00;100.00;97992.66;5064243;28;20021;-69
2022/04/05 08:00:12;;;;;;;14.52;7.07;;;;;;;6.02;100.00;97993.50;5064027;28;20332;-69
2022/04/05 08:02:38;;;;;;;13.63;6.30;;;;;;;6.03;100.00;97992.59;5064248;28;20066;-69
2022/04/05 08:05:04;;;;;;;20.70;9.43;;;;;;;6.10;100.00;97989.03;5064185;28;20231;-69
2022/04/05 08:07:30;;;;;;;14.52;7.20;;;;;;;6.18;100.00;97992.44;5063878;28;20084;-69
2022/04/05 08:09:56;;;;;;;18.58;7.15;;;;;;;6.25;99.70;97992.34;5063851;28;20024;-69
2022/04/05 08:12:22;;;;;;;19.08;7.40;;;;;;;6.39;99.61;97992.13;5063800;28;20124;-69
2022/04/05 08:14:47;;;;;;;10.57;6.05;;;;;;;6.38;99.59;98000.88;5064090;28;20028;-69
2022/04/05 08:17:13;;;;;;;19.52;6.30;;;;;;;6.32;99.70;97998.34;5063826;28;20325;-69
2022/04/05 08:19:38;;;;;;;10.98;6.18;;;;;;;6.25;99.87;97994.97;5063668;28;20028;-69
2022/04/05 08:22:04;;;;;;;12.30;6.60;;;;;;;6.30;100.00;98002.75;5063736;28;20029;-69
2022/04/05 08:24:30;;;;;;;19.55;7.13;;;;;;;6.38;99.81;98000.88;5063735;28;20379;-69
2022/04/05 08:26:55;;;;;;;14.23;7.25;;;;;;;6.41;99.65;98006.94;5063726;28;20029;-69
2022/04/05 08:29:20;;;;;;;13.02;6.72;;;;;;;6.40;99.74;98004.34;5063747;28;20100;-69
2022/04/05 08:31:46;;;;;;;11.20;6.45;;;;;;;6.39;99.20;98013.06;5063584;28;20064;-69
2022/04/05 08:34:11;;;;;;;17.08;6.85;;;;;;;6.42;99.50;98007.78;5063637;28;20043;-69
2022/04/05 08:36:37;;;;;;;12.18;6.63;;;;;;;6.46;100.00;98005.13;5063650;28;20028;-69
2022/04/05 08:39:02;;;;;;;14.32;6.90;;;;;;;6.52;99.64;98009.44;5063547;28;20040;-69
2022/04/05 08:41:32;;;;;;;14.32;6.07;;;;;;;6.52;99.93;98004.19;5063600;28;20028;-69
2022/04/05 08:44:01;;;;;;;13.27;6.72;;;;;;;6.56;100.00;98005.88;5063791;28;20075;-69
2022/04/05 08:46:32;;;;;;;11.95;6.68;;;;;;;6.60;99.77;98007.56;5063504;28;20027;-69
2022/04/05 08:48:58;;;;;;;9.90;5.78;;;;;;;6.60;99.57;98007.56;5063579;28;20021;-69
2022/04/05 08:51:23;;;;;;;8.38;5.40;;;;;;;6.62;100.00;98011.03;5063511;28;20035;-69
2022/04/05 08:53:48;;;;;;;13.82;6.75;;;;;;;6.75;99.64;98002.13;5063509;28;20036;-69
2022/04/05 08:56:15;;;;;;;18.67;7.60;;;;;;;6.78;100.00;98017.75;5063423;28;20032;-69
2022/04/05 08:58:40;;;;;;;20.35;6.00;;;;;;;6.88;99.97;98015.88;5063290;28;20025;-69
2022/04/05 09:01:06;;;;;;;11.93;6.10;;;;;;;6.79;99.17;98014.25;5063475;28;20036;-69
2022/04/05 09:03:33;;;;;;;15.02;6.72;;;;;;;6.76;100.00;98019.53;5063321;28;20020;-69
2022/04/05 09:06:18;;;;;;;14.90;6.78;;;;;;;6.88;100.00;98019.34;5063603;28;20024;-69
2022/04/05 09:08:47;;;;;;;14.40;7.60;;;;;;;6.97;100.00;98023.59;5065586;28;20017;-69
2022/04/05 09:11:13;;;;;;;10.65;6.00;;;;;;;7.01;99.87;98026.13;5067015;28;20025;-69
2022/04/05 09:13:40;;;;;;;12.25;6.50;;;;;;;7.00;100.00;98024.41;5066993;28;20027;-69
2022/04/05 09:16:08;;;;;;;12.13;6.32;;;;;;;7.02;99.92;98024.41;5065859;28;20025;-69
2022/04/05 09:18:44;;;;;;;10.70;6.72;;;;;;;7.02;99.75;98025.25;5067110;28;20021;-69
2022/04/05 09:21:11;;;;;;;9.93;5.95;;;;;;;7.10;100.00;98015.53;5067136;28;20023;-69
2022/04/05 09:23:42;;;;;;;16.70;6.97;;;;;;;7.13;99.73;98036.44;5066971;28;20388;-69
2022/04/05 09:26:11;;;;;;;14.13;6.22;;;;;;;7.18;99.04;98024.13;5066814;28;20047;-69
2022/04/05 09:29:05;;;;;;;12.68;5.80;;;;;;;7.20;99.36;98022.34;5066867;28;20023;-69
2022/04/05 09:31:43;;;;;;;12.43;6.70;;;;;;;7.17;99.18;98032.84;5066595;28;20048;-69
2022/04/05 09:34:13;;;;;;;17.77;6.95;;;;;;;7.22;99.00;98025.81;5066747;28;20036;-69
2022/04/05 09:36:44;;;;;;;12.57;6.10;;;;;;;7.13;99.66;98020.72;5066897;28;20020;-69
2022/04/05 09:39:24;;;;;;;12.60;7.10;;;;;;;7.08;98.52;98027.75;5066602;28;20025;-69
2022/04/05 09:42:05;;;;;;;13.13;6.28;;;;;;;7.20;99.57;98022.34;5066566;28;20025;-69
2022/04/05 09:44:42;;;;;;;19.90;7.80;;;;;;;7.28;99.98;98015.22;5066471;28;20044;-69
2022/04/05 09:47:22;;;;;;;13.00;6.50;;;;;;;7.41;98.56;98022.00;5066716;28;20066;-69
2022/04/05 09:49:49;;;;;;;17.05;7.18;;;;;;;7.59;98.78;98021.69;5066426;28;20306;-69
2022/04/05 09:52:32;;;;;;;19.52;7.30;;;;;;;7.66;98.77;98019.84;5066306;28;20228;-69
2022/04/05 09:55:16;;;;;;;11.77;6.35;;;;;;;7.69;98.07;98015.38;5066214;28;20025;-69
2022/04/05 09:57:42;;;;;;;12.82;6.07;;;;;;;7.67;98.66;98008.44;5066102;28;20025;-69
2022/04/05 10:00:11;;;;;;;11.82;5.82;;;;;;;7.55;99.14;98025.25;5066456;28;20031;-69
2022/04/05 10:02:57;;;;;;;13.98;7.43;;;;;;;7.61;98.82;98022.53;5066102;28;20024;-69
2022/04/05 10:05:22;;;;;;;14.68;7.07;;;;;;;7.45;99.34;98034.16;5065985;28;20363;-69
2022/04/05 10:07:48;;;;;;;11.75;6.53;;;;;;;7.44;99.34;98029.78;5066023;28;20025;-69
2022/04/05 10:10:13;;;;;;;15.73;6.97;;;;;;;7.59;100.00;98024.28;5065927;28;20373;-69
2022/04/05 10:12:39;;;;;;;9.45;5.22;;;;;;;7.54;98.67;98033.13;5065929;28;20044;-69
2022/04/05 10:15:04;;;;;;;10.25;5.50;;;;;;;7.59;99.56;98026.91;5065877;28;20075;-69
2022/04/05 10:17:31;;;;;;;16.83;6.78;;;;;;;7.37;98.99;98025.53;5065857;28;20372;-69
2022/04/05 10:19:57;;;;;;;11.15;6.45;;;;;;;7.42;99.87;98025.47;5064687;28;20343;-69
2022/04/05 10:22:24;;;;;;;13.50;6.55;;;;;;;7.29;99.84;98026.56;5065839;28;20021;-69
2022/04/05 10:24:52;;;;;;;12.00;6.80;;;;;;;7.36;99.51;98021.22;5065722;28;20029;-69
2022/04/05 10:27:19;;;;;;;10.50;6.50;;;;;;;7.45;100.00;98017.56;5065708;28;20068;-69
2022/04/05 10:29:45;;;;;;;9.98;5.60;;;;;;;7.53;100.00;98016.53;5065629;28;20048;-69
2022/04/05 10:32:37;;;;;;;12.13;7.15;;;;;;;7.57;100.00;98018.25;5065408;28;20112;-69
2022/04/05 10:35:05;;;;;;;16.63;6.63;;;;;;;7.58;100.00;98019.97;5065599;28;20255;-69
2022/04/05 10:37:33;;;;;;;12.25;6.88;;;;;;;7.57;99.62;98017.38;5065483;28;20220;-69
2022/04/05 10:39:58;;;;;;;14.52;7.63;;;;;;;7.70;100.00;98014.50;5065410;28;20090;-69
2022/04/05 10:42:32;;;;;;;13.88;6.88;;;;;;;7.74;99.61;98010.06;5065389;28;20028;-69
2022/04/05 10:45:13;;;;;;;13.20;7.30;;;;;;;7.77;100.00;98023.97;5065379;28;20067;-69
2022/04/05 10:48:26;;;;;;;12.85;6.38;;;;;;;7.90;99.01;98017.63;5065238;28;20048;-69
2022/04/05 10:51:00;;;;;;;16.83;7.10;;;;;;;7.86;99.41;98021.19;5065207;28;20025;-69
2022/04/05 10:53:33;;;;;;;12.65;6.53;;;;;;;7.94;99.32;98016.66;5065177;28;20028;-69
2022/04/05 10:56:04;;;;;;;11.73;7.53;;;;;;;7.84;99.59;98022.97;5065383;28;20292;-69
2022/04/05 10:58:35;;;;;;;12.67;6.97;;;;;;;7.87;98.47;98017.69;5065033;28;20158;-69
2022/04/05 11:01:37;;;;;;;17.13;6.40;;;;;;;7.90;98.84;98015.00;5065023;28;20044;-69
2022/04/05 11:04:18;;;;;;;13.32;6.60;;;;;;;7.95;98.78;98010.56;5065026;28;20037;-69
2022/04/05 11:07:02;;;;;;;13.50;7.13;;;;;;;7.86;99.27;98008.09;5065019;28;20016;-69
2022/04/05 11:09:35;;;;;;;11.23;6.70;;;;;;;7.88;99.17;98008.06;5064848;28;20020;-69
2022/04/05 11:12:08;;;;;;;16.00;7.05;;;;;;;7.86;99.60;98000.25;5064761;28;20324;-69
2022/04/05 11:14:42;;;;;;;14.00;7.78;;;;;;;7.83;98.89;98016.00;5064802;28;20032;-69
2022/04/05 11:17:12;;;;;;;16.15;7.88;;;;;;;7.89;99.35;98008.06;5064759;28;20029;-69
2022/04/05 11:19:41;;;;;;;12.43;7.45;;;;;;;7.88;98.84;98008.91;5064658;28;20364;-69
2022/04/05 11:22:19;;;;;;;12.50;6.90;;;;;;;7.76;99.44;97997.81;5064665;28;20029;-69
2022/04/05 11:24:53;;;;;;;17.15;8.18;;;;;;;7.76;99.01;97998.69;5064575;28;20035;-69
2022/04/05 11:27:45;;;;;;;12.57;6.80;;;;;;;7.77;99.13;98004.78;5064531;28;20092;-69
2022/04/05 11:30:23;;;;;;;13.63;8.02;;;;;;;7.76;100.00;98008.28;5064418;28;20123;-69
2022/04/05 11:33:09;;;;;;;11.68;6.30;;;;;;;7.87;100.00;98020.31;5064190;28;20064;-69
2022/04/05 11:36:00;;;;;;;10.98;7.03;;;;;;;7.90;99.77;98012.38;5064409;28;20027;-69